Time;durP1;ratioP1;P1;durP2;ratioP2;P2;SDS_P1;SDS_P2;PMS_P1;PMS_P2;Temp;Humidity;BMP_temperature;BMP_pressure;BME280_temperature;BME280_humidity;BME280_pressure;Samples;Min_cycle;Max_cycle;Signal;HPM_P1;HPM_P2
2022/11/07 07:11:13;;;;;;;;;0.33;0.33;;;;;18.30;58.83;101011.41;5090645;27;45902;-79
2022/11/07 07:13:39;;;;;;;;;0.00;0.00;;;;;18.48;58.95;100998.25;5080042;27;47115;-77
2022/11/07 07:16:05;;;;;;;;;2.00;2.00;;;;;18.70;58.96;101001.84;5082730;27;45714;-80
2022/11/07 07:18:31;;;;;;;;;1.33;1.33;;;;;19.02;58.21;101002.78;5081818;27;47307;-79
2022/11/07 07:21:02;;;;;;;;;0.00;0.00;;;;;19.35;58.48;101009.81;5081421;27;47215;-79
2022/11/07 07:23:27;;;;;;;;;3.67;1.00;;;;;19.69;57.95;101013.16;5080057;27;45635;-79
2022/11/07 07:25:53;;;;;;;;;1.00;1.00;;;;;20.03;57.08;101012.03;5080596;27;45505;-79
2022/11/07 07:28:18;;;;;;;;;1.00;1.00;;;;;20.33;56.57;101010.22;5079518;27;45776;-88
2022/11/07 07:30:43;;;;;;;;;1.33;1.33;;;;;20.63;56.55;101014.66;5080579;27;51376;-83
2022/11/07 07:33:09;;;;;;;;;0.00;0.00;;;;;20.90;55.52;101021.19;5091759;27;45657;-77
2022/11/07 07:35:34;;;;;;;;;1.33;0.00;;;;;21.13;55.55;101023.53;5091961;27;51730;-81
2022/11/07 07:37:59;;;;;;;;;3.67;2.00;;;;;21.28;54.90;101010.44;5098307;27;45387;-79
2022/11/07 07:40:24;;;;;;;;;2.00;0.00;;;;;21.52;54.60;101016.31;5082475;27;52558;-79
2022/11/07 07:42:50;;;;;;;;;0.00;0.00;;;;;21.69;54.23;101029.06;5076142;27;54465;-78
2022/11/07 07:45:16;;;;;;;;;1.00;1.00;;;;;21.84;54.06;101023.19;5089847;27;45470;-78
2022/11/07 07:47:41;;;;;;;;;0.67;0.67;;;;;21.95;53.54;101020.25;5084295;27;45511;-80
2022/11/07 07:50:09;;;;;;;;;1.00;1.00;;;;;22.09;53.68;101023.47;5081835;27;48620;-79
2022/11/07 07:52:34;;;;;;;;;0.00;0.00;;;;;22.18;53.14;101029.78;5080207;27;45804;-79
2022/11/07 07:55:00;;;;;;;;;1.33;1.33;;;;;22.25;52.64;101023.63;5079524;27;47339;-77
2022/11/07 07:57:25;;;;;;;;;3.00;1.00;;;;;22.37;52.26;101028.81;5083494;27;45507;-78
2022/11/07 07:59:51;;;;;;;;;2.00;2.00;;;;;22.43;51.53;101032.78;5087638;27;45732;-78
2022/11/07 08:02:16;;;;;;;;;0.00;0.00;;;;;22.47;51.70;101023.31;5095580;27;45419;-82
2022/11/07 08:04:42;;;;;;;;;1.67;1.00;;;;;22.52;51.91;101018.28;5084863;27;45498;-82
2022/11/07 08:07:07;;;;;;;;;1.00;1.00;;;;;22.57;51.62;101032.25;5093360;27;45396;-79
2022/11/07 08:09:36;;;;;;;;;2.00;0.67;;;;;22.63;51.39;101028.94;5089013;27;45593;-81
2022/11/07 08:12:07;;;;;;;;;1.33;1.33;;;;;22.69;51.29;101024.75;5090900;27;45474;-81
2022/11/07 08:14:32;;;;;;;;;1.00;1.00;;;;;22.74;51.39;101024.28;5091454;27;45470;-82
2022/11/07 08:16:58;;;;;;;;;1.33;0.00;;;;;22.80;51.37;101025.53;5089436;27;45481;-86
2022/11/07 08:19:23;;;;;;;;;1.00;1.00;;;;;22.85;50.96;101029.44;5090644;27;45450;-86
2022/11/07 08:21:49;;;;;;;;;2.00;0.00;;;;;22.88;51.13;101029.13;5079780;27;45496;-83
2022/11/07 08:24:14;;;;;;;;;0.67;0.67;;;;;22.96;51.01;101035.59;5072746;28;45822;-82
2022/11/07 08:26:39;;;;;;;;;2.00;2.00;;;;;23.00;50.67;101045.97;5075340;27;50334;-87
2022/11/07 08:29:05;;;;;;;;;0.00;0.00;;;;;23.05;50.84;101045.47;5074837;27;45479;-87
2022/11/07 08:31:30;;;;;;;;;1.00;1.00;;;;;23.08;50.84;101044.31;5078479;27;45425;-83
2022/11/07 08:33:59;;;;;;;;;0.00;0.00;;;;;23.13;50.59;101059.09;5092940;27;45396;-82
2022/11/07 08:36:25;;;;;;;;;1.00;0.00;;;;;23.17;50.44;101070.44;5076670;27;45410;-80
2022/11/07 08:38:51;;;;;;;;;5.00;1.00;;;;;23.19;50.36;101060.31;5076979;27;46139;-83
2022/11/07 08:41:16;;;;;;;;;2.00;1.00;;;;;23.23;50.61;101066.25;5081516;27;45600;-80
2022/11/07 08:43:42;;;;;;;;;1.00;0.00;;;;;23.25;50.45;101065.09;5080052;27;45410;-79
2022/11/07 08:46:07;;;;;;;;;0.00;0.00;;;;;23.29;49.55;101066.47;5073898;27;45482;-79
2022/11/07 08:48:32;;;;;;;;;2.00;0.00;;;;;23.35;49.19;101066.88;5075524;27;45362;-78
2022/11/07 08:51:00;;;;;;;;;1.00;1.00;;;;;23.32;48.88;101064.44;5076067;27;45545;-78
2022/11/07 08:53:25;;;;;;;;;3.00;1.00;;;;;23.30;48.70;101059.22;5076121;27;45363;-78
2022/11/07 08:55:51;;;;;;;;;0.67;0.67;;;;;23.30;48.33;101070.88;5076023;28;45570;-80
2022/11/07 08:58:18;;;;;;;;;2.00;0.00;;;;;23.26;48.32;101072.19;5089121;27;45448;-80
2022/11/07 09:00:43;;;;;;;;;4.67;3.00;;;;;23.22;48.43;101078.94;5061489;28;45423;-83
2022/11/07 09:03:10;;;;;;;;;2.00;1.00;;;;;23.21;48.23;101071.81;5076190;27;45392;-80
2022/11/07 09:05:37;;;;;;;;;3.67;2.33;;;;;23.19;48.24;101075.69;5074456;27;45529;-80
2022/11/07 09:08:02;;;;;;;;;0.00;0.00;;;;;23.18;47.95;101066.75;5076618;27;45458;-80
2022/11/07 09:10:27;;;;;;;;;1.00;1.00;;;;;23.14;47.86;101065.34;5075540;27;45508;-80
2022/11/07 09:12:53;;;;;;;;;1.00;1.00;;;;;23.10;47.67;101072.94;5076743;28;45342;-80
2022/11/07 09:15:19;;;;;;;;;0.00;0.00;;;;;23.05;47.63;101063.59;5073293;27;45466;-80
2022/11/07 09:17:49;;;;;;;;;0.33;0.33;;;;;23.03;47.94;101067.31;5076034;28;45893;-80
2022/11/07 09:20:15;;;;;;;;;1.00;1.00;;;;;23.01;47.74;101077.44;5076567;28;45472;-80
2022/11/07 09:22:41;;;;;;;;;0.33;0.33;;;;;22.97;47.69;101067.94;5076383;27;45399;-80
2022/11/07 09:25:07;;;;;;;;;2.00;0.00;;;;;22.95;47.79;101067.25;5075844;28;45470;-80
2022/11/07 09:27:33;;;;;;;;;0.00;0.00;;;;;22.95;47.50;101069.09;5075902;27;45369;-80
2022/11/07 09:29:59;;;;;;;;;0.00;0.00;;;;;22.93;47.64;101066.53;5081931;27;45324;-80
2022/11/07 09:32:24;;;;;;;;;1.33;1.33;;;;;22.92;47.41;101064.00;5080266;27;45284;-80
2022/11/07 09:34:50;;;;;;;;;0.67;0.00;;;;;22.90;47.46;101067.69;5075767;28;45363;-80
2022/11/07 09:37:15;;;;;;;;;0.00;0.00;;;;;22.92;47.45;101088.38;5076301;27;46104;-80
2022/11/07 09:39:40;;;;;;;;;0.00;0.00;;;;;22.93;47.28;101082.78;5076062;27;54162;-80
2022/11/07 09:42:27;;;;;;;;;0.00;0.00;;;;;22.90;47.77;101069.56;5076546;27;45449;-80
2022/11/07 09:44:57;;;;;;;;;2.00;1.00;;;;;22.92;47.35;101072.97;5075361;27;45715;-80
2022/11/07 09:47:29;;;;;;;;;0.67;0.67;;;;;22.93;47.55;101071.13;5076172;28;46036;-79
2022/11/07 09:50:02;;;;;;;;;1.67;1.00;;;;;22.92;47.43;101070.25;5091774;27;45433;-79
2022/11/07 09:52:42;;;;;;;;;0.00;0.00;;;;;22.93;47.31;101079.25;5074480;27;45661;-78
2022/11/07 09:55:19;;;;;;;;;1.67;1.00;;;;;22.93;47.13;101079.25;5077714;27;45482;-78
2022/11/07 09:57:47;;;;;;;;;0.33;0.33;;;;;22.90;47.16;101077.69;5075737;27;45419;-77
2022/11/07 10:00:14;;;;;;;;;2.00;1.00;;;;;22.93;47.51;101090.91;5075619;27;45525;-77
2022/11/07 10:02:44;;;;;;;;;1.00;1.00;;;;;22.90;47.24;101073.09;5075248;27;45779;-77
2022/11/07 10:05:23;;;;;;;;;2.67;1.00;;;;;22.97;47.15;101081.47;5075422;27;45368;-76
2022/11/07 10:08:00;;;;;;;;;3.00;1.33;;;;;22.99;47.34;101084.00;5071473;27;45971;-77
2022/11/07 10:10:53;;;;;;;;;2.00;0.67;;;;;23.01;47.32;101082.84;5068947;27;45526;-77
2022/11/07 10:13:42;;;;;;;;;0.67;0.00;;;;;23.01;47.36;101077.44;5073789;28;45567;-77
2022/11/07 10:16:22;;;;;;;;;1.67;1.00;;;;;23.02;46.87;101081.84;5072156;28;45378;-77
2022/11/07 10:19:03;;;;;;;;;0.00;0.00;;;;;23.04;47.45;101081.69;5074482;27;45505;-89
2022/11/07 10:21:53;;;;;;;;;1.33;1.33;;;;;23.10;47.53;101091.03;5064659;27;45442;-76
2022/11/07 10:24:45;;;;;;;;;2.00;1.00;;;;;23.09;47.26;101082.06;5072166;27;45830;-78
2022/11/07 10:27:11;;;;;;;;;0.67;0.67;;;;;23.05;47.84;101077.97;5066378;28;45307;-80
2022/11/07 10:29:51;;;;;;;;;1.67;1.00;;;;;23.01;47.53;101068.47;5071548;27;46434;-79
2022/11/07 10:32:37;;;;;;;;;3.00;1.00;;;;;23.01;47.41;101066.59;5069932;28;45517;-80
2022/11/07 10:35:11;;;;;;;;;3.00;1.33;;;;;23.02;47.33;101073.72;5074259;28;45410;-78
2022/11/07 10:37:37;;;;;;;;;0.67;0.67;;;;;22.98;47.29;101069.66;5075371;27;45525;-88
2022/11/07 10:40:15;;;;;;;;;1.67;0.33;;;;;22.96;47.46;101068.94;5075821;27;46049;-85
2022/11/07 10:42:44;;;;;;;;;2.00;2.00;;;;;22.96;47.21;101084.31;5074636;27;45408;-80
2022/11/07 10:45:13;;;;;;;;;0.00;0.00;;;;;22.95;47.28;101074.50;5074398;27;45575;-80
2022/11/07 10:47:40;;;;;;;;;1.00;1.00;;;;;22.93;47.51;101079.25;5074167;27;45484;-82
2022/11/07 10:50:18;;;;;;;;;0.33;0.33;;;;;22.97;47.13;101075.22;5073240;27;45485;-82
2022/11/07 10:52:52;;;;;;;;;0.00;0.00;;;;;22.95;47.03;101075.38;5073225;27;45453;-77
2022/11/07 10:55:17;;;;;;;;;1.33;1.33;;;;;22.99;47.14;101079.47;5071653;28;45566;-77
2022/11/07 10:57:48;;;;;;;;;1.00;1.00;;;;;23.03;47.00;101070.03;5074046;28;45549;-81
2022/11/07 11:00:24;;;;;;;;;1.00;1.00;;;;;23.05;47.21;101074.44;5074726;27;45464;-82
2022/11/07 11:02:50;;;;;;;;;1.33;1.00;;;;;23.01;47.38;101069.31;5074835;28;45398;-77
2022/11/07 11:05:32;;;;;;;;;1.00;1.00;;;;;23.08;47.11;101072.25;5073762;28;45386;-76
2022/11/07 11:08:15;;;;;;;;;1.00;1.00;;;;;23.14;47.59;101073.47;5073773;28;45705;-77
2022/11/07 11:10:40;;;;;;;;;1.00;1.00;;;;;23.16;47.40;101066.91;5073672;28;47401;-78
2022/11/07 11:13:06;;;;;;;;;2.00;0.00;;;;;23.24;47.59;101076.06;5074673;27;45512;-78
2022/11/07 11:15:41;;;;;;;;;1.33;1.33;;;;;23.25;47.26;101062.38;5072705;28;49547;-78
2022/11/07 11:18:15;;;;;;;;;0.67;0.33;;;;;23.36;47.31;101063.16;5069113;28;45582;-84
2022/11/07 11:20:53;;;;;;;;;0.67;0.67;;;;;23.40;47.42;101073.53;5071973;28;45431;-88
2022/11/07 11:23:23;;;;;;;;;1.00;1.00;;;;;23.44;47.58;101071.34;5076997;27;45365;-85
2022/11/07 11:25:50;;;;;;;;;2.00;1.00;;;;;23.49;47.35;101062.72;5082855;27;45355;-85
2022/11/07 11:28:41;;;;;;;;;1.00;1.00;;;;;23.53;47.61;101059.53;5074207;28;45492;-77
2022/11/07 11:31:28;;;;;;;;;1.00;0.00;;;;;23.59;47.54;101068.91;5073952;28;46249;-77
2022/11/07 11:34:01;;;;;;;;;1.67;1.67;;;;;23.61;47.13;101058.72;5072081;27;47078;-77
2022/11/07 11:36:34;;;;;;;;;3.67;1.00;;;;;23.63;47.37;101047.72;5073778;27;45424;-77
2022/11/07 11:39:08;;;;;;;;;1.00;1.00;;;;;23.72;47.46;101052.19;5072992;27;45399;-77
2022/11/07 11:41:33;;;;;;;;;0.33;0.00;;;;;23.76;47.45;101048.13;5073966;27;45486;-78
2022/11/07 11:44:19;;;;;;;;;0.67;0.67;;;;;23.81;47.21;101055.78;5073967;28;45259;-76
2022/11/07 11:46:54;;;;;;;;;0.00;0.00;;;;;23.85;47.20;101059.00;5085012;27;45380;-80
2022/11/07 11:49:42;;;;;;;;;0.33;0.33;;;;;23.88;47.06;101062.25;5073092;27;45947;-78
2022/11/07 11:52:16;;;;;;;;;2.00;2.00;;;;;23.90;47.27;101046.66;5073123;28;46785;-78
2022/11/07 11:54:45;;;;;;;;;1.00;1.00;;;;;23.90;47.00;101041.25;5073252;28;45433;-79
2022/11/07 11:57:22;;;;;;;;;1.00;0.33;;;;;23.95;46.98;101035.34;5077173;27;45406;-78
2022/11/07 12:00:12;;;;;;;;;1.00;1.00;;;;;23.98;47.04;101036.88;5077009;27;45426;-79
2022/11/07 12:02:59;;;;;;;;;1.00;1.00;;;;;23.99;47.12;101042.09;5065566;28;46181;-87
2022/11/07 12:06:04;;;;;;;;;0.00;0.00;;;;;23.99;47.01;101030.44;5093947;27;45740;-82
2022/11/07 12:08:43;;;;;;;;;1.00;1.00;;;;;24.04;47.14;101041.63;5076985;27;45410;-77
2022/11/07 12:11:16;;;;;;;;;1.67;0.67;;;;;24.03;47.52;101032.63;5064989;28;45212;-78
2022/11/07 12:14:10;;;;;;;;;1.00;1.00;;;;;24.08;47.16;101043.00;5079411;27;46097;-77
2022/11/07 12:16:53;;;;;;;;;1.00;1.00;;;;;24.12;47.06;101043.53;5076676;27;45669;-77
2022/11/07 12:19:40;;;;;;;;;1.00;1.00;;;;;24.12;47.20;101036.28;5076610;27;45401;-76
2022/11/07 12:22:23;;;;;;;;;2.00;2.00;;;;;24.13;47.20;101035.25;5077166;27;45525;-75
2022/11/07 12:25:15;;;;;;;;;0.00;0.00;;;;;24.13;47.25;101029.81;5075328;28;45965;-78
2022/11/07 12:28:17;;;;;;;;;1.33;1.33;;;;;24.15;47.04;101026.94;5032465;28;45566;-77
2022/11/07 12:31:01;;;;;;;;;3.00;1.00;;;;;24.15;47.14;101013.41;5022494;28;45505;-78
2022/11/07 12:33:40;;;;;;;;;1.00;1.00;;;;;24.18;46.74;101027.47;5022146;28;45682;-78
2022/11/07 12:36:17;;;;;;;;;1.67;1.67;;;;;24.20;45.83;101022.69;5034687;28;46156;-79
2022/11/07 12:39:01;;;;;;;;;1.67;1.33;;;;;24.19;46.19;101037.28;5034023;28;45480;-78
2022/11/07 12:41:48;;;;;;;;;1.00;1.00;;;;;24.13;46.34;101018.97;5022047;28;45376;-80
2022/11/07 12:44:19;;;;;;;;;3.33;2.00;;;;;24.06;46.62;101024.19;5033665;28;45509;-78
2022/11/07 12:47:00;;;;;;;;;2.67;2.67;;;;;24.02;46.69;101030.09;5031084;28;46191;-79
2022/11/07 12:49:37;;;;;;;;;1.67;1.00;;;;;23.97;46.56;101016.16;5033126;28;45736;-79
2022/11/07 12:52:08;;;;;;;;;1.00;1.00;;;;;23.94;46.94;101031.75;5039531;28;45519;-78
2022/11/07 12:55:00;;;;;;;;;6.00;2.00;;;;;23.95;46.82;101032.63;5033300;28;45459;-78
2022/11/07 12:57:31;;;;;;;;;2.00;2.00;;;;;23.97;47.30;101036.00;5022762;28;45718;-78
2022/11/07 13:00:00;;;;;;;;;1.00;1.00;;;;;24.01;47.43;101025.69;5020571;28;45441;-77
2022/11/07 13:02:44;;;;;;;;;1.00;1.00;;;;;24.05;47.52;101014.34;5033702;28;45435;-81
2022/11/07 13:05:34;;;;;;;;;0.00;0.00;;;;;24.11;47.54;101014.72;5062865;27;45505;-78
2022/11/07 13:08:37;;;;;;;;;1.00;1.00;;;;;24.18;47.39;101015.75;5069732;27;47443;-84
2022/11/07 13:11:11;;;;;;;;;1.67;1.67;;;;;24.26;47.36;101025.75;5063375;28;45363;-80
2022/11/07 13:14:14;;;;;;;;;1.00;1.00;;;;;24.31;47.47;101021.53;5068489;27;45537;-77
2022/11/07 13:17:01;;;;;;;;;1.00;1.00;;;;;24.36;47.75;101015.59;5063446;28;45317;-74
2022/11/07 13:19:40;;;;;;;;;0.33;0.33;;;;;24.41;47.30;101024.13;5077399;27;45509;-75
2022/11/07 13:22:16;;;;;;;;;0.67;0.67;;;;;24.46;47.25;101016.31;5069864;27;45784;-75
2022/11/07 13:25:15;;;;;;;;;0.67;0.67;;;;;24.48;46.95;100998.00;5065087;28;45435;-76
2022/11/07 13:28:05;;;;;;;;;1.00;1.00;;;;;24.50;47.13;101007.81;5074109;27;45522;-76
2022/11/07 13:30:38;;;;;;;;;1.00;1.00;;;;;24.49;47.20;101001.56;5063476;28;48249;-73
2022/11/07 13:33:05;;;;;;;;;0.00;0.00;;;;;24.49;47.28;101004.28;5075760;27;45486;-77
2022/11/07 13:35:36;;;;;;;;;1.33;0.33;;;;;24.47;47.15;100987.31;5065473;27;45827;-81
2022/11/07 13:38:22;;;;;;;;;0.67;0.67;;;;;24.45;46.97;101003.75;5071489;28;45780;-75
2022/11/07 13:41:03;;;;;;;;;1.00;1.00;;;;;24.43;47.37;100992.22;5076229;28;46133;-77
2022/11/07 13:43:45;;;;;;;;;0.67;0.67;;;;;24.47;47.14;100996.31;5066005;27;45623;-77
2022/11/07 13:46:45;;;;;;;;;0.67;0.67;;;;;24.51;47.03;101002.22;5075297;28;45768;-74
2022/11/07 13:49:15;;;;;;;;;2.00;1.00;;;;;24.53;46.95;100988.50;5063918;28;45497;-75
2022/11/07 13:51:44;;;;;;;;;2.00;1.00;;;;;24.57;47.33;100990.69;5058035;27;45430;-77
2022/11/07 13:54:46;;;;;;;;;0.67;0.67;;;;;24.61;47.19;100981.19;5074886;28;45387;-80
2022/11/07 13:57:16;;;;;;;;;1.00;1.00;;;;;24.68;47.35;100978.66;5075075;28;45700;-77
2022/11/07 13:59:44;;;;;;;;;2.00;1.00;;;;;24.72;47.33;100971.88;5074163;27;45686;-78
2022/11/07 14:02:24;;;;;;;;;0.33;0.33;;;;;24.79;47.23;100976.59;5070832;27;46209;-77
2022/11/07 14:04:52;;;;;;;;;0.00;0.00;;;;;24.81;47.68;100975.41;5073668;27;45465;-74
2022/11/07 14:07:18;;;;;;;;;0.00;0.00;;;;;24.78;47.33;100954.06;5073796;27;45709;-74
2022/11/07 14:09:44;;;;;;;;;1.00;1.00;;;;;24.86;47.05;100967.63;5074910;27;45523;-74
2022/11/07 14:12:19;;;;;;;;;1.67;1.00;;;;;24.88;47.23;100970.19;5074192;28;46266;-74
2022/11/07 14:14:47;;;;;;;;;0.67;0.67;;;;;24.89;46.86;100969.16;5072120;27;45410;-76
2022/11/07 14:17:19;;;;;;;;;5.00;2.00;;;;;24.88;46.85;100966.63;5067138;28;45420;-74
2022/11/07 14:19:45;;;;;;;;;1.00;1.00;;;;;24.86;47.18;100962.19;5071290;28;45547;-75
2022/11/07 14:22:26;;;;;;;;;0.00;0.00;;;;;24.88;47.08;100961.22;5064349;27;46478;-77
2022/11/07 14:24:55;;;;;;;;;0.67;0.00;;;;;24.86;47.23;100958.66;5073892;28;45470;-78
2022/11/07 14:27:21;;;;;;;;;1.00;1.00;;;;;24.82;46.84;100958.13;5074529;27;45792;-78
2022/11/07 14:29:54;;;;;;;;;1.00;1.00;;;;;24.82;47.42;100959.97;5074302;27;45825;-77
2022/11/07 14:32:20;;;;;;;;;2.00;0.33;;;;;24.77;47.45;100949.63;5074985;27;45510;-77
2022/11/07 14:34:48;;;;;;;;;1.00;1.00;;;;;24.77;47.07;100955.06;5074344;27;45767;-77
2022/11/07 14:37:16;;;;;;;;;0.00;0.00;;;;;24.71;47.19;100953.03;5074555;27;45740;-77
2022/11/07 14:39:42;;;;;;;;;1.00;1.00;;;;;24.70;46.82;100945.91;5073160;27;45456;-77
2022/11/07 14:42:16;;;;;;;;;1.67;1.33;;;;;24.65;46.87;100957.31;5074402;28;45480;-77
2022/11/07 14:44:45;;;;;;;;;0.00;0.00;;;;;24.63;46.92;100948.47;5075292;27;45347;-76
2022/11/07 14:47:17;;;;;;;;;1.00;1.00;;;;;24.60;47.17;100949.66;5072348;27;45287;-75
2022/11/07 14:49:45;;;;;;;;;2.00;1.00;;;;;24.56;47.01;100945.59;5073910;28;45496;-76
2022/11/07 14:52:42;;;;;;;;;0.00;0.00;;;;;24.52;46.92;100956.97;5070536;27;46017;-75
2022/11/07 14:55:30;;;;;;;;;0.00;0.00;;;;;24.44;47.09;100945.09;5066560;27;45655;-76
2022/11/07 14:57:59;;;;;;;;;0.00;0.00;;;;;24.41;47.36;100944.59;5074772;27;45503;-74
2022/11/07 15:00:24;;;;;;;;;0.00;0.00;;;;;24.38;47.06;100956.63;5068746;27;45485;-75
2022/11/07 15:02:52;;;;;;;;;1.33;0.00;;;;;24.32;46.93;100950.00;5065478;27;45686;-80
2022/11/07 15:05:36;;;;;;;;;0.00;0.00;;;;;24.28;46.19;100956.78;5071443;28;45501;-74
2022/11/07 15:08:01;;;;;;;;;3.00;1.00;;;;;24.20;46.45;100945.94;5063561;27;45450;-74
2022/11/07 15:10:37;;;;;;;;;1.00;1.00;;;;;24.17;46.79;100959.81;5072076;27;45331;-73
2022/11/07 15:13:23;;;;;;;;;1.00;1.00;;;;;24.11;46.99;100950.50;5066646;27;45539;-74
2022/11/07 15:15:59;;;;;;;;;3.00;0.67;;;;;24.13;46.99;100945.75;5066367;28;45846;-78
2022/11/07 15:18:26;;;;;;;;;1.33;1.00;;;;;24.12;47.16;100946.78;5068623;27;45436;-75
2022/11/07 15:21:00;;;;;;;;;1.33;1.00;;;;;24.14;47.18;100943.88;5068662;28;45496;-75
2022/11/07 15:23:31;;;;;;;;;1.00;1.00;;;;;24.14;47.61;100942.03;5071329;27;46182;-84
2022/11/07 15:26:11;;;;;;;;;2.00;2.00;;;;;24.17;47.19;100932.72;5072759;28;45499;-80
2022/11/07 15:28:46;;;;;;;;;2.00;2.00;;;;;24.23;47.43;100931.19;5073755;27;45410;-83
2022/11/07 15:31:29;;;;;;;;;1.33;1.00;;;;;24.27;47.50;100932.56;5073835;27;45355;-79
2022/11/07 15:33:57;;;;;;;;;1.00;1.00;;;;;24.37;47.64;100935.09;5069054;27;46341;-85
2022/11/07 15:36:24;;;;;;;;;3.00;1.00;;;;;24.42;47.52;100930.84;5076657;27;45680;-88
2022/11/07 15:38:50;;;;;;;;;2.67;0.33;;;;;24.50;47.64;100935.44;5085793;27;45519;-80
2022/11/07 15:41:16;;;;;;;;;2.33;1.67;;;;;24.60;47.40;100943.38;5079758;27;45888;-80
2022/11/07 15:43:41;;;;;;;;;1.00;1.00;;;;;24.66;47.28;100940.00;5074421;27;47163;-83
2022/11/07 15:46:34;;;;;;;;;2.00;2.00;;;;;24.74;47.25;100944.56;5077344;27;48058;-85
2022/11/07 15:49:01;;;;;;;;;2.00;1.67;;;;;24.77;47.08;100944.19;5061651;27;45382;-78
2022/11/07 15:51:27;;;;;;;;;3.00;1.00;;;;;24.81;47.07;100937.41;5074595;27;45517;-77
2022/11/07 15:53:52;;;;;;;;;3.00;2.00;;;;;24.83;47.27;100932.69;5066572;27;45470;-82
2022/11/07 15:56:20;;;;;;;;;1.67;1.67;;;;;24.84;47.52;100928.09;5076973;27;45460;-79
2022/11/07 15:58:46;;;;;;;;;1.00;1.00;;;;;24.84;46.90;100928.97;5079375;27;45246;-78
2022/11/07 16:01:11;;;;;;;;;2.00;2.00;;;;;24.82;47.00;100936.41;5075382;27;45226;-74
2022/11/07 16:03:37;;;;;;;;;1.00;1.00;;;;;24.84;47.59;100941.69;5074749;27;45924;-76
2022/11/07 16:06:13;;;;;;;;;1.00;0.00;;;;;24.85;47.61;100941.50;5077148;27;45458;-83
2022/11/07 16:08:39;;;;;;;;;1.33;1.00;;;;;24.88;47.57;100942.19;5074987;27;45518;-82
2022/11/07 16:11:10;;;;;;;;;2.00;1.00;;;;;24.93;47.42;100939.81;5070342;27;45473;-83
2022/11/07 16:13:35;;;;;;;;;1.67;1.00;;;;;24.97;47.40;100946.59;5068921;27;45334;-79
2022/11/07 16:16:04;;;;;;;;;2.00;2.00;;;;;25.03;47.78;100945.88;5070804;27;45423;-79
2022/11/07 16:18:35;;;;;;;;;2.67;1.33;;;;;25.09;47.53;100944.34;5076017;28;45378;-79
2022/11/07 16:21:00;;;;;;;;;0.67;0.67;;;;;25.13;47.48;100949.25;5072392;28;45380;-75
2022/11/07 16:23:25;;;;;;;;;2.67;1.33;;;;;25.17;47.61;100943.47;5075760;27;53931;-88
2022/11/07 16:25:51;;;;;;;;;2.00;0.67;;;;;25.24;47.46;100956.19;5077475;28;56389;-78
2022/11/07 16:28:34;;;;;;;;;0.33;0.00;;;;;25.26;46.92;100947.88;5074645;27;45566;-79
2022/11/07 16:31:00;;;;;;;;;1.00;1.00;;;;;25.30;47.00;100953.78;5070093;28;45339;-77
2022/11/07 16:33:27;;;;;;;;;2.67;1.00;;;;;25.30;47.50;100948.34;5072993;27;45725;-81
2022/11/07 16:35:57;;;;;;;;;1.00;1.00;;;;;25.30;46.74;100949.19;5077811;28;45573;-85
2022/11/07 16:38:24;;;;;;;;;0.00;0.00;;;;;25.28;46.73;100948.53;5077395;27;45382;-79
2022/11/07 16:40:50;;;;;;;;;0.67;0.33;;;;;25.28;46.60;100948.53;5082933;27;45566;-81
2022/11/07 17:30:03;;;;;;;;;2.33;2.00;;;;;21.45;50.51;100956.66;5028589;28;45723;-83
2022/11/07 17:32:29;;;;;;;;;3.67;3.67;;;;;21.46;50.38;100947.56;5039894;28;45499;-83
2022/11/07 17:34:54;;;;;;;;;2.33;2.00;;;;;21.55;51.44;100956.63;5042721;28;48194;-81
2022/11/07 17:37:19;;;;;;;;;3.00;1.00;;;;;21.72;50.95;100949.59;5043535;28;51743;-82
2022/11/07 17:39:46;;;;;;;;;2.00;2.00;;;;;21.90;51.00;100946.91;5049040;28;45974;-82
2022/11/07 17:42:12;;;;;;;;;0.67;0.67;;;;;22.02;50.58;100925.09;5037277;28;45404;-76
2022/11/07 17:44:38;;;;;;;;;2.33;2.33;;;;;22.32;51.19;100947.31;5045729;28;45490;-73
2022/11/07 17:47:04;;;;;;;;;4.50;2.00;;;;;22.51;51.12;100948.97;5044779;28;45435;-78
2022/11/07 17:49:29;;;;;;;;;2.33;1.00;;;;;22.66;50.98;100941.19;5037550;28;45405;-81
2022/11/07 17:51:55;;;;;;;;;1.33;1.33;;;;;22.85;50.74;100950.13;5047540;28;45387;-80
2022/11/07 17:54:20;;;;;;;;;3.00;3.00;;;;;23.01;51.18;100952.91;5050559;28;45364;-81
2022/11/07 17:56:46;;;;;;;;;2.00;2.00;;;;;23.15;50.79;100940.66;5049230;28;45400;-79
2022/11/07 17:59:16;;;;;;;;;3.67;2.00;;;;;23.31;50.33;100949.88;5050992;27;54978;-78
2022/11/07 18:01:42;;;;;;;;;4.00;3.00;;;;;23.41;50.28;100937.06;5050435;28;45507;-85
2022/11/07 18:04:09;;;;;;;;;5.67;3.67;;;;;23.59;50.29;100940.69;5040756;28;45510;-80
2022/11/07 18:06:36;;;;;;;;;2.33;2.33;;;;;23.72;50.02;100932.09;5042228;28;46225;-76
2022/11/07 18:09:04;;;;;;;;;3.33;3.00;;;;;23.85;50.07;100939.72;5043297;28;46391;-87
2022/11/07 18:11:30;;;;;;;;;9.00;6.00;;;;;23.91;49.82;100928.25;5049832;28;45831;-79
2022/11/07 18:13:57;;;;;;;;;3.33;2.67;;;;;24.01;49.44;100938.91;5040745;28;45541;-81
2022/11/07 18:16:32;;;;;;;;;5.67;5.33;;;;;24.10;49.17;100937.94;5048027;28;46041;-78
2022/11/07 18:18:58;;;;;;;;;10.00;8.00;;;;;24.17;49.37;100930.00;5050407;28;46173;-81
2022/11/07 18:21:25;;;;;;;;;5.67;5.67;;;;;24.25;49.10;100926.44;5043842;28;45774;-83
2022/11/07 18:23:51;;;;;;;;;5.00;5.00;;;;;24.31;49.21;100931.19;5045048;28;45523;-78
2022/11/07 18:26:20;;;;;;;;;8.00;8.00;;;;;24.36;49.11;100930.69;5050327;28;45445;-76
